NCAR-RAP Real-Time Weather Data

Output produced by METARs form (26 May 2022  09:03 UTC)
found at http://weather.rap.ucar.edu/surface/
 
KMGM 260753Z AUTO 00000KT 10SM -RA OVC110 21/19 A3000 RMK AO2 SLP157 P0040 T02110189
KMGM 260653Z AUTO 17007KT 5SM +RA BR FEW017 BKN033 OVC042 21/19 A3005 RMK AO2 SLP172 P0039 T02110194
KMGM 260622Z AUTO 17006KT 10SM -RA BKN033 BKN040 OVC050 21/19 A3004 RMK AO2 P0032 T02110194
KMGM 260600Z AUTO 20009KT 3SM +RA BR FEW007 BKN025 OVC038 21/19 A3005 RMK AO2 P0015 T02110194
KMGM 260553Z AUTO 19009G19KT 3SM VCTS +RA BR FEW007 BKN022 OVC037 22/19 A3005 RMK AO2 LTG DSNT N RAB16 TSB08E23 SLP174 P0025 60025 T02170194 10256 20217 402780206 53007
KMGM 260544Z AUTO 22010KT 4SM VCTS +RA BR FEW009 BKN026 OVC050 22/20 A3006 RMK AO2 LTG DSNT N RAB16 TSB08E23 P0012 T02220200
KMGM 260540Z AUTO 24009KT 4SM VCTS +RA BR FEW011 BKN030 OVC050 22/20 A3005 RMK AO2 LTG DSNT N RAB16 TSB08E23 P0003 T02220200
KMGM 260526Z AUTO 23007KT 10SM -RA SCT015 BKN021 OVC035 23/20 A3005 RMK AO2 LTG DSNT S AND SW RAB16 TSB08E23 P0000 T02280200
KMGM 260511Z AUTO 25006KT 10SM TS BKN015 BKN055 OVC070 23/20 A3005 RMK AO2 LTG DSNT SW AND W TSB08 T02280200
KMGM 260507Z AUTO 24007KT 10SM SCT015 BKN050 OVC060 23/20 A3005 RMK AO2 LTG DSNT SW-NW PRESRR T02280200
KMGM 260453Z AUTO 15005KT 10SM VCTS FEW050 BKN060 OVC075 23/19 A3003 RMK AO2 LTG DSNT SW-NW SLP166 T02280194
KMGM 260451Z AUTO 15006KT 10SM VCTS SCT050 BKN060 OVC075 23/20 A3003 RMK AO2 LTG DSNT SW-NW
KMGM 260353Z 15006KT 10SM BKN070 OVC110 23/20 A3003 RMK AO2 SLP167 T02330200
KMGM 260253Z 13007KT 10SM FEW065 SCT110 23/20 A3003 RMK AO2 SLP167 T02330200 53013
KMGM 260153Z 13009KT 10SM OVC060 24/20 A3002 RMK AO2 SLP162 T02390200
KMGM 260053Z 12008KT 10SM FEW020 24/21 A3000 RMK AO2 SLP155 T02440206
KMGM 260032Z 13011G21KT 10SM SCT023 BKN065 25/20 A3000 RMK AO2 T02500200
KMGM 252353Z 13007KT 10SM BKN025 BKN060 26/20 A3000 RMK AO2 SLP154 60000 T02560200 10278 20222 58003
KMGM 252253Z 15008G16KT 10SM SCT041 BKN055 26/20 A3000 RMK AO2 SLP156 T02560200
KMGM 252153Z 13012KT 10SM FEW085 26/19 A3000 RMK AO2 SLP157 T02610194
KMGM 252053Z 11009KT 10SM SCT095 27/20 A3000 RMK AO2 SLP157 60000 T02670200 56004
KMGM 251953Z 12009KT 10SM SCT015 27/21 A3001 RMK AO2 SLP159 T02670206
KMGM 251853Z 17011KT 10SM BKN012 25/21 A3000 RMK AO2 RAE12 SLP157 P0000 T02500211
KMGM 251847Z 16009KT 10SM BKN012 24/21 A3000 RMK AO2 RAE12 P0000
KMGM 251819Z 15005KT 10SM SCT007 SCT055 23/21 A3000 RMK AO2 RAE12 P0000 T02280206
KMGM 251753Z 15011G14KT 10SM -RA OVC007 23/21 A3002 RMK AO2 RAE14B50 CIG 005V009 SLP161 P0003 60059 T02280206 10228 20211 55015
KMGM 251717Z 16008KT 10SM BKN007 BKN080 OVC100 22/21 A3002 RMK AO2 LTG DSNT SE RAE14 P0003 T02220206
KMGM 251708Z 16007KT 10SM -RA SCT007 BKN080 OVC110 22/21 A3003 RMK AO2 LTG DSNT SE P0002 T02220206
KMGM 251653Z 12010KT 10SM -RA BKN110 22/20 A3001 RMK AO2 LTG DSNT E SLP160 P0011 T02170200
KMGM 251553Z 13011KT 10SM RA SCT090 OVC110 22/20 A3004 RMK AO2 SLP171 P0015 T02170200
KMGM 251453Z 14009KT 5SM RA BR SCT100 OVC120 22/20 A3006 RMK AO2 LTG DSNT NE SLP177 P0012 60030 T02170200 51009
KMGM 251353Z 12003KT 10SM RA FEW034 BKN100 OVC120 22/20 A3006 RMK AO2 LTG DSNT NE AND E SLP177 P0014 T02170200
KMGM 251253Z 00000KT 10SM -RA FEW015 BKN070 OVC090 22/20 A3006 RMK AO2 SLP175 P0004 T02170200
KMGM 251153Z 00000KT 10SM -RA OVC055 21/19 A3003 RMK AO2 RAB41 SLP167 P0000 60000 T02110194 10217 20206 53013 $
KMGM 251053Z AUTO 09007KT 10SM BKN060 OVC080 21/19 A3001 RMK AO2 SLP160 T02110189 $
KMGM 251020Z AUTO 09004KT 10SM SCT008 SCT065 SCT120 21/19 A3000 RMK AO2 T02060189 $
KMGM 250953Z AUTO 08005KT 10SM BKN008 21/19 A3000 RMK AO2 SLP157 T02110189 $
KMGM 250951Z AUTO 09006KT 10SM BKN008 21/19 A3000 RMK AO2 $
KMGM 250853Z AUTO 09006KT 10SM CLR 21/19 A3000 RMK AO2 SLP155 T02060189 58006 $
KMGM 250753Z AUTO 09005KT 10SM CLR 21/19 A3001 RMK AO2 SLP159 T02110194 $
KMGM 250653Z AUTO 11007KT 10SM SCT005 BKN038 21/20 A3001 RMK AO2 SLP160 T02110200 $
KMGM 250621Z AUTO 11004KT 10SM BKN005 21/20 A3002 RMK AO2 T02110200 $
KMGM 250553Z AUTO 13005KT 10SM FEW005 21/20 A3002 RMK AO2 SLP162 T02110200 10267 20211 403110211 52001 $
KMGM 250453Z AUTO 09005KT 10SM CLR 22/19 A3001 RMK AO2 SLP161 T02170194 $
KMGM 250353Z 10007KT 10SM CLR 22/19 A3002 RMK AO2 SLP163 T02220194 $
KMGM 250253Z 12006KT 10SM BKN120 23/19 A3002 RMK AO2 SLP161 T02330194 51012 $
KMGM 250153Z 10012KT 10SM SCT032 BKN041 OVC055 24/20 A3001 RMK AO2 TSE01 SLP160 T02440200 $
KMGM 250128Z 10005KT 10SM BKN045 26/23 A3000 RMK AO2 LTG DSNT N-SE TSE01 T02560228 $
KMGM 250107Z 00000KT 10SM VCTS CLR 26/23 A2999 RMK AO2 LTG DSNT NE-S TSE01 T02560233 $
KMGM 250053Z AUTO 00000KT 10SM CLR 26/23 A2999 RMK AO2 LTG DSNT NE-SE SLP153 T02560233 $
KMGM 242353Z AUTO 00000KT 10SM CLR 27/23 A2998 RMK AO2 SLP149 60000 T02670233 10311 20250 53009
KMGM 242253Z 33004KT 10SM CLR 27/22 A2996 RMK AO2 SLP142 T02670222
KMGM 242153Z 00000KT 10SM SCT100 SCT110 25/22 A2996 RMK AO2 RAB19E47 TSB25E40B41E48 SLP143 P0000 T02500222
KMGM 242126Z 18004KT 10SM -TSRA SCT110 28/21 A2997 RMK AO2 LTG DSNT N AND NW RAB19 TSB25 P0000 T02780211
KMGM 242115Z 13005KT 10SM VCTS FEW110 29/21 A2996 RMK AO2 LTG DSNT SW-NW T02890206
KMGM 242053Z 13009KT 10SM FEW055 FEW080 SCT100 29/21 A2996 RMK AO2 LTG DSNT SW-NW SLP141 60000 T02890206 56027
KMGM 241953Z 14008KT 10SM FEW036 FEW046 31/22 A2998 RMK AO2 LTG DSNT SW AND W SLP148 T03110217
KMGM 241853Z 13011G16KT 10SM FEW035 31/21 A3000 RMK AO2 RAB03E14 SLP156 P0000 T03060211
KMGM 241753Z 14008KT 10SM SCT027 BKN049 BKN060 29/21 A3003 RMK AO2 SLP167 60000 T02890211 10294 20222 58004
KMGM 241749Z 15008KT 10SM BKN027 BKN039 BKN049 29/21 A3004 RMK AO2
KMGM 241653Z VRB03KT 10SM SCT055 28/21 A3005 RMK AO2 SLP173 T02780211
KMGM 241553Z 10006KT 10SM CLR 27/21 A3005 RMK AO2 SLP172 T02720211
KMGM 241506Z 00000KT 10SM CLR 24/21 A3005 RMK AO2 T02440206
KMGM 241453Z 00000KT 10SM BKN009 BKN110 24/20 A3005 RMK AO2 RAB01E20 SLP172 P0000 60000 T02390200 50003
KMGM 241429Z 00000KT 10SM SCT009 BKN110 23/20 A3005 RMK AO2 RAB01E20 P0000 T02330200
KMGM 241353Z AUTO 11004KT 10SM OVC011 23/20 A3005 RMK AO2 SLP173 T02280200
KMGM 241253Z AUTO 08005KT 10SM OVC012 22/19 A3004 RMK AO2 SLP169 T02220194
KMGM 241235Z AUTO 09005KT 10SM BKN012 22/19 A3004 RMK AO2 T02220194
KMGM 241153Z AUTO 08004KT 10SM FEW018 22/19 A3004 RMK AO2 SLP169 70001 T02170194 10217 20211 51009
KMGM 241053Z AUTO 00000KT 10SM BKN033 BKN040 21/19 A3004 RMK AO2 SLP169 T02110194
KMGM 240953Z AUTO 09004KT 10SM BKN055 21/19 A3002 RMK AO2 SLP162 T02110194